sensor_id;sensor_type;location;lat;lon;timestamp;pressure;altitude;pressure_sealevel;temperature;humidity
3968;BME280;9221;42.646;23.380;2024-01-30T00:01:05;96420.63;;;1.31;69.20
3968;BME280;9221;42.646;23.380;2024-01-30T00:03:30;96399.00;;;1.03;68.68
3968;BME280;9221;42.646;23.380;2024-01-30T00:05:56;96444.91;;;1.30;69.07
3968;BME280;9221;42.646;23.380;2024-01-30T00:08:21;96440.75;;;1.25;69.71
3968;BME280;9221;42.646;23.380;2024-01-30T00:10:47;96449.28;;;1.28;68.89
3968;BME280;9221;42.646;23.380;2024-01-30T00:13:13;96436.00;;;1.09;69.00
3968;BME280;9221;42.646;23.380;2024-01-30T00:15:39;96425.66;;;1.08;69.26
3968;BME280;9221;42.646;23.380;2024-01-30T00:18:05;96450.19;;;1.27;68.74
3968;BME280;9221;42.646;23.380;2024-01-30T00:20:32;96448.38;;;1.29;68.87
3968;BME280;9221;42.646;23.380;2024-01-30T00:22:58;96449.47;;;1.22;68.61
3968;BME280;9221;42.646;23.380;2024-01-30T00:25:23;96446.69;;;1.28;68.89
3968;BME280;9221;42.646;23.380;2024-01-30T00:27:49;96443.66;;;1.14;68.50
3968;BME280;9221;42.646;23.380;2024-01-30T00:30:14;96460.88;;;1.18;68.96
3968;BME280;9221;42.646;23.380;2024-01-30T00:32:40;96468.66;;;1.18;69.02
3968;BME280;9221;42.646;23.380;2024-01-30T00:35:05;96432.66;;;1.06;68.98
3968;BME280;9221;42.646;23.380;2024-01-30T00:37:31;96455.47;;;1.24;69.15
3968;BME280;9221;42.646;23.380;2024-01-30T00:39:57;96454.53;;;1.27;68.48
3968;BME280;9221;42.646;23.380;2024-01-30T00:42:23;96456.31;;;0.96;69.30
3968;BME280;9221;42.646;23.380;2024-01-30T00:44:49;96469.69;;;0.82;70.17
3968;BME280;9221;42.646;23.380;2024-01-30T00:47:15;96453.34;;;0.79;70.81
3968;BME280;9221;42.646;23.380;2024-01-30T00:49:40;96451.28;;;0.60;71.05
3968;BME280;9221;42.646;23.380;2024-01-30T00:52:06;96428.94;;;0.55;71.58
3968;BME280;9221;42.646;23.380;2024-01-30T00:54:31;96444.47;;;0.86;70.86
3968;BME280;9221;42.646;23.380;2024-01-30T00:56:57;96434.03;;;0.89;70.01
3968;BME280;9221;42.646;23.380;2024-01-30T00:59:22;96427.03;;;0.91;69.42
3968;BME280;9221;42.646;23.380;2024-01-30T01:01:48;96449.72;;;1.14;69.51
3968;BME280;9221;42.646;23.380;2024-01-30T01:04:13;96459.16;;;1.17;68.80
3968;BME280;9221;42.646;23.380;2024-01-30T01:06:39;96424.97;;;1.03;68.93
3968;BME280;9221;42.646;23.380;2024-01-30T01:09:07;96439.59;;;1.05;68.97
3968;BME280;9221;42.646;23.380;2024-01-30T01:11:33;96425.03;;;0.99;68.95
3968;BME280;9221;42.646;23.380;2024-01-30T01:13:58;96443.28;;;1.26;68.97
3968;BME280;9221;42.646;23.380;2024-01-30T01:16:24;96408.47;;;1.04;68.85
3968;BME280;9221;42.646;23.380;2024-01-30T01:18:49;96427.47;;;1.06;68.72
3968;BME280;9221;42.646;23.380;2024-01-30T01:21:15;96431.84;;;1.04;68.94
3968;BME280;9221;42.646;23.380;2024-01-30T01:23:40;96437.75;;;1.09;68.99
3968;BME280;9221;42.646;23.380;2024-01-30T01:26:07;96429.44;;;0.67;69.65
3968;BME280;9221;42.646;23.380;2024-01-30T01:28:35;96446.09;;;0.60;70.65
3968;BME280;9221;42.646;23.380;2024-01-30T01:31:00;96448.16;;;0.79;70.59
3968;BME280;9221;42.646;23.380;2024-01-30T01:33:33;96445.44;;;0.83;69.74
3968;BME280;9221;42.646;23.380;2024-01-30T01:36:00;96441.19;;;0.81;70.29
3968;BME280;9221;42.646;23.380;2024-01-30T01:38:28;96445.47;;;0.82;70.05
3968;BME280;9221;42.646;23.380;2024-01-30T01:40:53;96458.38;;;0.85;69.86
3968;BME280;9221;42.646;23.380;2024-01-30T01:43:19;96463.28;;;0.94;69.64
3968;BME280;9221;42.646;23.380;2024-01-30T01:45:45;96449.78;;;0.83;70.03
3968;BME280;9221;42.646;23.380;2024-01-30T01:48:11;96466.97;;;0.87;69.85
3968;BME280;9221;42.646;23.380;2024-01-30T01:50:38;96444.47;;;0.88;70.05
3968;BME280;9221;42.646;23.380;2024-01-30T01:53:05;96426.44;;;0.81;70.13
3968;BME280;9221;42.646;23.380;2024-01-30T01:55:32;96449.41;;;0.95;69.59
3968;BME280;9221;42.646;23.380;2024-01-30T01:57:58;96420.31;;;0.84;70.24
3968;BME280;9221;42.646;23.380;2024-01-30T02:00:24;96453.94;;;0.89;69.71
3968;BME280;9221;42.646;23.380;2024-01-30T02:02:50;96462.84;;;0.80;69.66
3968;BME280;9221;42.646;23.380;2024-01-30T02:05:17;96477.59;;;0.78;69.37
3968;BME280;9221;42.646;23.380;2024-01-30T02:07:43;96470.53;;;0.83;68.69
3968;BME280;9221;42.646;23.380;2024-01-30T02:10:09;96453.19;;;0.85;68.61
3968;BME280;9221;42.646;23.380;2024-01-30T02:12:36;96472.66;;;1.00;67.75
3968;BME280;9221;42.646;23.380;2024-01-30T02:15:02;96466.53;;;1.03;67.83
3968;BME280;9221;42.646;23.380;2024-01-30T02:17:28;96470.09;;;0.98;67.60
3968;BME280;9221;42.646;23.380;2024-01-30T02:19:53;96461.50;;;0.96;68.21
3968;BME280;9221;42.646;23.380;2024-01-30T02:22:20;96444.41;;;0.89;68.01
3968;BME280;9221;42.646;23.380;2024-01-30T02:24:46;96425.59;;;0.81;67.78
3968;BME280;9221;42.646;23.380;2024-01-30T02:27:12;96465.72;;;1.00;67.19
3968;BME280;9221;42.646;23.380;2024-01-30T02:29:37;96457.81;;;1.04;67.50
3968;BME280;9221;42.646;23.380;2024-01-30T02:32:03;96453.50;;;1.04;67.75
3968;BME280;9221;42.646;23.380;2024-01-30T02:34:28;96440.63;;;0.99;67.38
3968;BME280;9221;42.646;23.380;2024-01-30T02:36:54;96461.03;;;1.12;67.34
3968;BME280;9221;42.646;23.380;2024-01-30T02:39:19;96467.09;;;1.12;66.89
3968;BME280;9221;42.646;23.380;2024-01-30T02:41:45;96445.56;;;1.09;67.35
3968;BME280;9221;42.646;23.380;2024-01-30T02:44:10;96455.09;;;1.08;66.80
3968;BME280;9221;42.646;23.380;2024-01-30T02:46:36;96455.84;;;1.12;67.10
3968;BME280;9221;42.646;23.380;2024-01-30T02:49:01;96461.97;;;1.09;66.88
3968;BME280;9221;42.646;23.380;2024-01-30T02:51:27;96458.31;;;1.16;67.47
3968;BME280;9221;42.646;23.380;2024-01-30T02:53:52;96360.88;;;0.45;66.82
3968;BME280;9221;42.646;23.380;2024-01-30T02:56:18;96454.16;;;1.11;66.98
3968;BME280;9221;42.646;23.380;2024-01-30T02:58:43;96448.78;;;1.17;66.59
3968;BME280;9221;42.646;23.380;2024-01-30T03:01:09;96474.22;;;1.06;67.37
3968;BME280;9221;42.646;23.380;2024-01-30T03:03:34;96452.13;;;1.21;67.12
3968;BME280;9221;42.646;23.380;2024-01-30T03:06:01;96445.91;;;1.26;66.78
3968;BME280;9221;42.646;23.380;2024-01-30T03:08:27;96462.47;;;1.22;65.75
3968;BME280;9221;42.646;23.380;2024-01-30T03:10:52;96431.78;;;1.07;65.95
3968;BME280;9221;42.646;23.380;2024-01-30T03:13:18;96423.34;;;0.98;65.70
3968;BME280;9221;42.646;23.380;2024-01-30T03:15:43;96451.63;;;1.08;65.68
3968;BME280;9221;42.646;23.380;2024-01-30T03:18:09;96397.66;;;0.89;64.76
3968;BME280;9221;42.646;23.380;2024-01-30T03:20:34;96448.88;;;1.14;65.35
3968;BME280;9221;42.646;23.380;2024-01-30T03:23:00;96437.34;;;0.93;65.42
3968;BME280;9221;42.646;23.380;2024-01-30T03:25:26;96404.06;;;0.77;65.31
3968;BME280;9221;42.646;23.380;2024-01-30T03:27:51;96438.22;;;0.93;65.44
3968;BME280;9221;42.646;23.380;2024-01-30T03:30:17;96442.13;;;1.08;65.40
3968;BME280;9221;42.646;23.380;2024-01-30T03:32:43;96439.59;;;1.05;64.52
3968;BME280;9221;42.646;23.380;2024-01-30T03:35:09;96458.63;;;1.06;64.26
3968;BME280;9221;42.646;23.380;2024-01-30T03:37:35;96443.94;;;1.05;64.82
3968;BME280;9221;42.646;23.380;2024-01-30T03:40:01;96443.66;;;1.14;64.37
3968;BME280;9221;42.646;23.380;2024-01-30T03:42:26;96436.78;;;1.13;63.64
3968;BME280;9221;42.646;23.380;2024-01-30T03:44:52;96433.44;;;1.08;63.40
3968;BME280;9221;42.646;23.380;2024-01-30T03:47:19;96433.38;;;1.11;63.44
3968;BME280;9221;42.646;23.380;2024-01-30T03:49:45;96430.78;;;1.11;63.52
3968;BME280;9221;42.646;23.380;2024-01-30T03:52:10;96419.56;;;1.09;63.55
3968;BME280;9221;42.646;23.380;2024-01-30T03:54:36;96434.69;;;0.96;63.46
3968;BME280;9221;42.646;23.380;2024-01-30T03:57:01;96418.81;;;0.77;63.69
3968;BME280;9221;42.646;23.380;2024-01-30T03:59:27;96420.41;;;0.81;64.22
3968;BME280;9221;42.646;23.380;2024-01-30T04:01:52;96429.00;;;0.83;64.69
3968;BME280;9221;42.646;23.380;2024-01-30T04:04:18;96431.13;;;0.70;64.34
3968;BME280;9221;42.646;23.380;2024-01-30T04:06:44;96431.50;;;0.56;63.32
3968;BME280;9221;42.646;23.380;2024-01-30T04:09:11;96422.91;;;0.54;64.52
3968;BME280;9221;42.646;23.380;2024-01-30T04:11:38;96427.47;;;0.76;64.02
3968;BME280;9221;42.646;23.380;2024-01-30T04:14:04;96440.28;;;0.52;64.80
3968;BME280;9221;42.646;23.380;2024-01-30T04:16:29;96425.69;;;0.46;64.30
3968;BME280;9221;42.646;23.380;2024-01-30T04:18:55;96421.28;;;0.50;63.76
3968;BME280;9221;42.646;23.380;2024-01-30T04:21:21;96408.78;;;0.64;63.99
3968;BME280;9221;42.646;23.380;2024-01-30T04:23:47;96409.13;;;0.52;64.11
3968;BME280;9221;42.646;23.380;2024-01-30T04:26:14;96428.63;;;0.65;64.31
3968;BME280;9221;42.646;23.380;2024-01-30T04:28:41;96433.28;;;0.54;64.21
3968;BME280;9221;42.646;23.380;2024-01-30T04:31:07;96414.75;;;0.37;63.43
3968;BME280;9221;42.646;23.380;2024-01-30T04:33:32;96425.69;;;0.46;64.52
3968;BME280;9221;42.646;23.380;2024-01-30T04:35:58;96424.81;;;0.47;65.21
3968;BME280;9221;42.646;23.380;2024-01-30T04:38:23;96434.25;;;0.50;64.39
3968;BME280;9221;42.646;23.380;2024-01-30T04:40:49;96413.13;;;0.32;64.88
3968;BME280;9221;42.646;23.380;2024-01-30T04:43:14;96440.34;;;0.49;65.20
3968;BME280;9221;42.646;23.380;2024-01-30T04:45:41;96444.78;;;0.45;64.91
3968;BME280;9221;42.646;23.380;2024-01-30T04:48:07;96428.69;;;0.32;64.93
3968;BME280;9221;42.646;23.380;2024-01-30T04:50:32;96412.88;;;0.42;65.29
3968;BME280;9221;42.646;23.380;2024-01-30T04:52:58;96453.53;;;0.73;65.46
3968;BME280;9221;42.646;23.380;2024-01-30T04:55:23;96391.97;;;0.16;65.37
3968;BME280;9221;42.646;23.380;2024-01-30T04:57:49;96426.81;;;0.38;66.58
3968;BME280;9221;42.646;23.380;2024-01-30T05:00:15;96453.69;;;0.66;65.97
3968;BME280;9221;42.646;23.380;2024-01-30T05:02:40;96459.16;;;0.57;65.57
3968;BME280;9221;42.646;23.380;2024-01-30T05:05:06;96460.06;;;0.23;65.39
3968;BME280;9221;42.646;23.380;2024-01-30T05:07:31;96457.41;;;0.26;66.42
3968;BME280;9221;42.646;23.380;2024-01-30T05:09:57;96440.94;;;0.27;66.53
3968;BME280;9221;42.646;23.380;2024-01-30T05:12:22;96453.38;;;0.47;66.44
3968;BME280;9221;42.646;23.380;2024-01-30T05:14:48;96435.69;;;0.30;67.56
3968;BME280;9221;42.646;23.380;2024-01-30T05:17:13;96454.25;;;0.48;67.30
3968;BME280;9221;42.646;23.380;2024-01-30T05:19:39;96462.47;;;0.62;66.75
3968;BME280;9221;42.646;23.380;2024-01-30T05:22:04;96464.97;;;0.65;66.88
3968;BME280;9221;42.646;23.380;2024-01-30T05:24:30;96457.38;;;0.59;66.97
3968;BME280;9221;42.646;23.380;2024-01-30T05:26:55;96483.59;;;0.50;66.57
3968;BME280;9221;42.646;23.380;2024-01-30T05:29:21;96428.88;;;-0.07;67.05
3968;BME280;9221;42.646;23.380;2024-01-30T05:31:47;96476.91;;;0.07;67.60
3968;BME280;9221;42.646;23.380;2024-01-30T05:34:12;96469.19;;;0.05;68.78
3968;BME280;9221;42.646;23.380;2024-01-30T05:36:38;96465.19;;;0.26;68.60
3968;BME280;9221;42.646;23.380;2024-01-30T05:39:03;96470.78;;;0.44;67.90
3968;BME280;9221;42.646;23.380;2024-01-30T05:41:30;96478.63;;;0.41;67.60
3968;BME280;9221;42.646;23.380;2024-01-30T05:43:55;96473.53;;;0.05;67.83
3968;BME280;9221;42.646;23.380;2024-01-30T05:46:21;96471.09;;;-0.02;69.02
3968;BME280;9221;42.646;23.380;2024-01-30T05:48:47;96497.72;;;0.05;68.56
3968;BME280;9221;42.646;23.380;2024-01-30T05:51:12;96490.16;;;-0.03;68.99
3968;BME280;9221;42.646;23.380;2024-01-30T05:53:38;96439.19;;;-0.40;69.75
3968;BME280;9221;42.646;23.380;2024-01-30T05:56:04;96475.47;;;-0.38;68.88
3968;BME280;9221;42.646;23.380;2024-01-30T05:58:30;96454.38;;;-0.60;69.04
3968;BME280;9221;42.646;23.380;2024-01-30T06:00:58;96466.81;;;-0.75;69.58
3968;BME280;9221;42.646;23.380;2024-01-30T06:03:24;96471.09;;;-0.74;69.59
3968;BME280;9221;42.646;23.380;2024-01-30T06:05:49;96440.41;;;-0.92;69.57
3968;BME280;9221;42.646;23.380;2024-01-30T06:08:15;96483.97;;;-0.71;69.34
3968;BME280;9221;42.646;23.380;2024-01-30T06:10:40;96493.31;;;-0.63;69.92
3968;BME280;9221;42.646;23.380;2024-01-30T06:13:06;96476.97;;;-0.65;69.43
3968;BME280;9221;42.646;23.380;2024-01-30T06:15:31;96480.28;;;-0.60;69.39
3968;BME280;9221;42.646;23.380;2024-01-30T06:17:58;96441.09;;;-0.84;69.06
3968;BME280;9221;42.646;23.380;2024-01-30T06:20:24;96438.31;;;-0.75;68.74
3968;BME280;9221;42.646;23.380;2024-01-30T06:22:49;96469.53;;;-0.43;68.25
3968;BME280;9221;42.646;23.380;2024-01-30T06:25:15;96479.81;;;-0.40;68.19
3968;BME280;9221;42.646;23.380;2024-01-30T06:27:42;96479.16;;;-0.48;68.15
3968;BME280;9221;42.646;23.380;2024-01-30T06:30:08;96480.84;;;-0.47;69.15
3968;BME280;9221;42.646;23.380;2024-01-30T06:32:33;96478.09;;;-0.41;68.43
3968;BME280;9221;42.646;23.380;2024-01-30T06:35:01;96449.06;;;-0.54;67.18
3968;BME280;9221;42.646;23.380;2024-01-30T06:37:27;96446.16;;;-0.42;66.93
3968;BME280;9221;42.646;23.380;2024-01-30T06:39:52;96469.53;;;-0.43;66.84
3968;BME280;9221;42.646;23.380;2024-01-30T06:42:18;96484.88;;;-0.36;66.87
3968;BME280;9221;42.646;23.380;2024-01-30T06:44:44;96462.19;;;-0.26;66.05
3968;BME280;9221;42.646;23.380;2024-01-30T06:47:10;96484.13;;;-0.05;65.23
3968;BME280;9221;42.646;23.380;2024-01-30T06:49:35;96479.59;;;0.04;64.89
3968;BME280;9221;42.646;23.380;2024-01-30T06:52:05;96473.94;;;-0.12;64.76
3968;BME280;9221;42.646;23.380;2024-01-30T06:54:30;96485.06;;;-0.07;65.19
3968;BME280;9221;42.646;23.380;2024-01-30T06:56:56;96500.75;;;-0.12;65.24
3968;BME280;9221;42.646;23.380;2024-01-30T06:59:22;96489.09;;;0.05;64.33
3968;BME280;9221;42.646;23.380;2024-01-30T07:01:47;96495.06;;;0.08;64.65
3968;BME280;9221;42.646;23.380;2024-01-30T07:04:13;96477.06;;;0.02;63.90
3968;BME280;9221;42.646;23.380;2024-01-30T07:06:38;96497.94;;;0.30;63.78
3968;BME280;9221;42.646;23.380;2024-01-30T07:09:04;96505.69;;;0.65;62.42
3968;BME280;9221;42.646;23.380;2024-01-30T07:11:30;96508.72;;;0.81;61.96
3968;BME280;9221;42.646;23.380;2024-01-30T07:13:56;96492.78;;;0.93;61.84
3968;BME280;9221;42.646;23.380;2024-01-30T07:16:21;96492.16;;;1.13;61.13
3968;BME280;9221;42.646;23.380;2024-01-30T07:18:47;96488.66;;;1.44;60.01
3968;BME280;9221;42.646;23.380;2024-01-30T07:21:13;96489.59;;;1.70;58.51
3968;BME280;9221;42.646;23.380;2024-01-30T07:23:38;96484.44;;;1.95;58.78
3968;BME280;9221;42.646;23.380;2024-01-30T07:26:05;96491.91;;;2.31;57.20
3968;BME280;9221;42.646;23.380;2024-01-30T07:28:31;96490.00;;;2.36;56.47
3968;BME280;9221;42.646;23.380;2024-01-30T07:30:57;96490.00;;;2.36;57.19
3968;BME280;9221;42.646;23.380;2024-01-30T07:33:23;96486.22;;;3.18;56.86
3968;BME280;9221;42.646;23.380;2024-01-30T07:35:48;96475.75;;;3.42;54.62
3968;BME280;9221;42.646;23.380;2024-01-30T07:38:14;96481.69;;;3.45;53.49
3968;BME280;9221;42.646;23.380;2024-01-30T07:40:39;96473.75;;;3.93;51.88
3968;BME280;9221;42.646;23.380;2024-01-30T07:43:06;96486.06;;;3.89;53.24
3968;BME280;9221;42.646;23.380;2024-01-30T07:45:31;96484.66;;;4.02;52.10
3968;BME280;9221;42.646;23.380;2024-01-30T07:47:58;96490.34;;;3.69;52.82
3968;BME280;9221;42.646;23.380;2024-01-30T07:50:25;96485.47;;;3.60;52.58
3968;BME280;9221;42.646;23.380;2024-01-30T07:52:50;96487.75;;;3.90;52.41
3968;BME280;9221;42.646;23.380;2024-01-30T07:55:20;96468.38;;;3.53;52.13
3968;BME280;9221;42.646;23.380;2024-01-30T07:57:47;96489.28;;;3.73;51.83
3968;BME280;9221;42.646;23.380;2024-01-30T08:00:13;96483.63;;;3.62;52.53
3968;BME280;9221;42.646;23.380;2024-01-30T08:02:38;96471.13;;;3.93;52.07
3968;BME280;9221;42.646;23.380;2024-01-30T08:05:04;96480.47;;;4.81;50.95
3968;BME280;9221;42.646;23.380;2024-01-30T08:07:30;96500.22;;;4.47;50.21
3968;BME280;9221;42.646;23.380;2024-01-30T08:09:55;96491.59;;;4.24;50.74
3968;BME280;9221;42.646;23.380;2024-01-30T08:12:21;96481.81;;;4.70;49.83
3968;BME280;9221;42.646;23.380;2024-01-30T08:14:46;96478.22;;;5.49;48.68
3968;BME280;9221;42.646;23.380;2024-01-30T08:17:12;96471.91;;;5.72;47.40
3968;BME280;9221;42.646;23.380;2024-01-30T08:19:37;96481.22;;;5.61;46.80
3968;BME280;9221;42.646;23.380;2024-01-30T08:22:03;96454.88;;;5.64;47.75
3968;BME280;9221;42.646;23.380;2024-01-30T08:24:28;96459.66;;;6.27;47.48
3968;BME280;9221;42.646;23.380;2024-01-30T08:26:54;96475.72;;;6.89;44.39
3968;BME280;9221;42.646;23.380;2024-01-30T08:29:19;96471.97;;;7.27;44.76
3968;BME280;9221;42.646;23.380;2024-01-30T08:31:46;96471.63;;;7.97;42.92
3968;BME280;9221;42.646;23.380;2024-01-30T08:34:11;96479.06;;;8.35;41.81
3968;BME280;9221;42.646;23.380;2024-01-30T08:36:37;96465.53;;;8.57;41.52
3968;BME280;9221;42.646;23.380;2024-01-30T08:39:02;96479.81;;;8.53;41.33
3968;BME280;9221;42.646;23.380;2024-01-30T08:41:28;96483.50;;;8.79;40.70
3968;BME280;9221;42.646;23.380;2024-01-30T08:43:53;96487.31;;;8.59;40.05
3968;BME280;9221;42.646;23.380;2024-01-30T08:46:19;96481.56;;;7.60;42.27
3968;BME280;9221;42.646;23.380;2024-01-30T08:48:46;96476.09;;;7.31;42.83
3968;BME280;9221;42.646;23.380;2024-01-30T08:51:12;96488.03;;;6.54;43.60
3968;BME280;9221;42.646;23.380;2024-01-30T08:53:39;96499.81;;;5.91;45.18
3968;BME280;9221;42.646;23.380;2024-01-30T08:56:06;96411.19;;;4.91;47.02
3968;BME280;9221;42.646;23.380;2024-01-30T08:58:31;96473.00;;;5.30;46.62
3968;BME280;9221;42.646;23.380;2024-01-30T09:00:57;96472.94;;;5.13;46.80
3968;BME280;9221;42.646;23.380;2024-01-30T09:03:22;96484.19;;;5.15;47.50
3968;BME280;9221;42.646;23.380;2024-01-30T09:05:48;96490.88;;;5.01;47.92
3968;BME280;9221;42.646;23.380;2024-01-30T09:08:13;96506.59;;;4.81;47.97
3968;BME280;9221;42.646;23.380;2024-01-30T09:10:39;96471.66;;;4.63;48.29
3968;BME280;9221;42.646;23.380;2024-01-30T09:13:04;96483.53;;;4.70;48.46
3968;BME280;9221;42.646;23.380;2024-01-30T09:15:30;96487.53;;;4.79;47.89
3968;BME280;9221;42.646;23.380;2024-01-30T09:17:55;96489.34;;;4.77;48.54
3968;BME280;9221;42.646;23.380;2024-01-30T09:20:21;96479.31;;;4.47;48.81
3968;BME280;9221;42.646;23.380;2024-01-30T09:22:47;96473.84;;;4.32;49.31
3968;BME280;9221;42.646;23.380;2024-01-30T09:25:13;96472.34;;;4.06;50.10
3968;BME280;9221;42.646;23.380;2024-01-30T09:27:39;96464.06;;;3.95;50.25
3968;BME280;9221;42.646;23.380;2024-01-30T09:30:06;96436.03;;;4.00;50.42
3968;BME280;9221;42.646;23.380;2024-01-30T09:32:31;96469.31;;;5.34;49.15
3968;BME280;9221;42.646;23.380;2024-01-30T09:34:57;96449.31;;;6.59;46.35
3968;BME280;9221;42.646;23.380;2024-01-30T09:37:22;96475.69;;;7.87;43.37
3968;BME280;9221;42.646;23.380;2024-01-30T09:39:48;96464.66;;;7.96;42.50
3968;BME280;9221;42.646;23.380;2024-01-30T09:42:35;96471.16;;;8.51;40.67
3968;BME280;9221;42.646;23.380;2024-01-30T09:45:05;96458.34;;;9.19;39.80
3968;BME280;9221;42.646;23.380;2024-01-30T09:47:41;96451.91;;;9.79;38.40
3968;BME280;9221;42.646;23.380;2024-01-30T09:50:11;96469.47;;;10.33;37.75
3968;BME280;9221;42.646;23.380;2024-01-30T09:52:37;96441.16;;;10.75;36.82
3968;BME280;9221;42.646;23.380;2024-01-30T09:55:06;96437.59;;;11.02;36.12
3968;BME280;9221;42.646;23.380;2024-01-30T09:57:31;96452.59;;;11.51;35.33
3968;BME280;9221;42.646;23.380;2024-01-30T09:59:57;96453.09;;;10.68;35.26
3968;BME280;9221;42.646;23.380;2024-01-30T10:02:23;96454.34;;;9.40;36.90
3968;BME280;9221;42.646;23.380;2024-01-30T10:04:49;96446.19;;;8.58;38.23
3968;BME280;9221;42.646;23.380;2024-01-30T10:07:16;96447.38;;;8.53;39.39
3968;BME280;9221;42.646;23.380;2024-01-30T10:09:42;96445.81;;;8.34;38.00
3968;BME280;9221;42.646;23.380;2024-01-30T10:12:09;96437.41;;;7.19;40.08
3968;BME280;9221;42.646;23.380;2024-01-30T10:14:38;96443.31;;;7.06;42.28
3968;BME280;9221;42.646;23.380;2024-01-30T10:17:03;96449.38;;;6.57;42.54
3968;BME280;9221;42.646;23.380;2024-01-30T10:19:29;96429.22;;;6.24;43.44
3968;BME280;9221;42.646;23.380;2024-01-30T10:21:55;96442.56;;;6.20;44.22
3968;BME280;9221;42.646;23.380;2024-01-30T10:24:24;96459.22;;;5.82;45.23
3968;BME280;9221;42.646;23.380;2024-01-30T10:26:50;96428.50;;;5.32;46.39
3968;BME280;9221;42.646;23.380;2024-01-30T10:29:16;96450.03;;;5.18;47.21
3968;BME280;9221;42.646;23.380;2024-01-30T10:31:42;96431.22;;;5.09;47.34
3968;BME280;9221;42.646;23.380;2024-01-30T10:34:07;96430.06;;;5.17;47.17
3968;BME280;9221;42.646;23.380;2024-01-30T10:36:41;96433.28;;;5.22;47.28
3968;BME280;9221;42.646;23.380;2024-01-30T10:39:08;96446.00;;;4.91;47.73
3968;BME280;9221;42.646;23.380;2024-01-30T10:41:43;96447.34;;;4.42;48.97
3968;BME280;9221;42.646;23.380;2024-01-30T10:44:10;96431.72;;;4.19;50.05
3968;BME280;9221;42.646;23.380;2024-01-30T10:46:38;96443.56;;;4.07;49.55
3968;BME280;9221;42.646;23.380;2024-01-30T10:49:04;96436.25;;;4.16;50.31
3968;BME280;9221;42.646;23.380;2024-01-30T10:51:31;96439.03;;;4.32;50.02
3968;BME280;9221;42.646;23.380;2024-01-30T10:53:57;96439.63;;;4.18;50.43
3968;BME280;9221;42.646;23.380;2024-01-30T10:56:24;96394.03;;;4.06;49.98
3968;BME280;9221;42.646;23.380;2024-01-30T10:58:51;96438.56;;;4.43;50.14
3968;BME280;9221;42.646;23.380;2024-01-30T11:01:22;96414.00;;;4.47;49.53
3968;BME280;9221;42.646;23.380;2024-01-30T11:03:55;96422.50;;;4.52;49.78
3968;BME280;9221;42.646;23.380;2024-01-30T11:06:25;96386.44;;;4.20;49.71
3968;BME280;9221;42.646;23.380;2024-01-30T11:09:04;96411.66;;;4.61;49.25
3968;BME280;9221;42.646;23.380;2024-01-30T11:11:57;96404.09;;;4.74;48.88
3968;BME280;9221;42.646;23.380;2024-01-30T11:14:26;96414.28;;;4.40;49.97
3968;BME280;9221;42.646;23.380;2024-01-30T11:16:52;96416.25;;;4.35;50.18
3968;BME280;9221;42.646;23.380;2024-01-30T11:19:27;96405.25;;;4.48;50.44
3968;BME280;9221;42.646;23.380;2024-01-30T11:21:56;96365.97;;;4.30;49.31
3968;BME280;9221;42.646;23.380;2024-01-30T11:24:25;96398.75;;;4.56;49.42
3968;BME280;9221;42.646;23.380;2024-01-30T11:26:57;96394.38;;;4.38;49.89
3968;BME280;9221;42.646;23.380;2024-01-30T11:29:27;96400.31;;;4.42;50.59
3968;BME280;9221;42.646;23.380;2024-01-30T11:31:54;96386.22;;;4.46;50.76
3968;BME280;9221;42.646;23.380;2024-01-30T11:34:20;96361.91;;;4.44;50.09
3968;BME280;9221;42.646;23.380;2024-01-30T11:36:52;96373.66;;;4.54;49.96
3968;BME280;9221;42.646;23.380;2024-01-30T11:39:24;96382.44;;;4.32;50.84
3968;BME280;9221;42.646;23.380;2024-01-30T11:41:51;96397.81;;;4.38;50.48
3968;BME280;9221;42.646;23.380;2024-01-30T11:44:20;96410.50;;;4.27;51.22
3968;BME280;9221;42.646;23.380;2024-01-30T11:46:48;96391.56;;;4.22;51.06
3968;BME280;9221;42.646;23.380;2024-01-30T11:49:13;96410.38;;;4.10;51.02
3968;BME280;9221;42.646;23.380;2024-01-30T11:51:39;96405.44;;;4.24;51.02
3968;BME280;9221;42.646;23.380;2024-01-30T11:54:05;96350.63;;;4.03;50.91
3968;BME280;9221;42.646;23.380;2024-01-30T11:56:30;96386.63;;;4.16;51.14
3968;BME280;9221;42.646;23.380;2024-01-30T11:58:56;96389.75;;;4.24;50.97
3968;BME280;9221;42.646;23.380;2024-01-30T12:01:21;96390.00;;;4.38;50.87
3968;BME280;9221;42.646;23.380;2024-01-30T12:03:50;96383.09;;;4.56;50.71
3968;BME280;9221;42.646;23.380;2024-01-30T12:06:16;96382.91;;;4.61;49.84
3968;BME280;9221;42.646;23.380;2024-01-30T12:08:42;96368.00;;;4.63;49.81
3968;BME280;9221;42.646;23.380;2024-01-30T12:11:07;96367.16;;;4.63;49.90
3968;BME280;9221;42.646;23.380;2024-01-30T12:13:33;96353.44;;;4.57;49.54
3968;BME280;9221;42.646;23.380;2024-01-30T12:16:03;96355.72;;;4.65;49.91
3968;BME280;9221;42.646;23.380;2024-01-30T12:18:28;96359.53;;;4.58;50.22
3968;BME280;9221;42.646;23.380;2024-01-30T12:21:00;96357.53;;;4.63;49.99
3968;BME280;9221;42.646;23.380;2024-01-30T12:23:29;96349.66;;;4.25;50.55
3968;BME280;9221;42.646;23.380;2024-01-30T12:25:54;96359.28;;;4.04;51.51
3968;BME280;9221;42.646;23.380;2024-01-30T12:28:20;96345.94;;;3.91;51.36
3968;BME280;9221;42.646;23.380;2024-01-30T12:30:46;96345.50;;;3.59;52.71
3968;BME280;9221;42.646;23.380;2024-01-30T12:33:18;96340.03;;;3.45;52.53
3968;BME280;9221;42.646;23.380;2024-01-30T12:35:47;96347.31;;;3.36;52.94
3968;BME280;9221;42.646;23.380;2024-01-30T12:38:14;96318.34;;;3.22;52.79
3968;BME280;9221;42.646;23.380;2024-01-30T12:40:40;96313.44;;;2.92;53.61
3968;BME280;9221;42.646;23.380;2024-01-30T12:43:05;96327.28;;;2.94;53.78
3968;BME280;9221;42.646;23.380;2024-01-30T12:45:31;96320.56;;;3.11;53.89
3968;BME280;9221;42.646;23.380;2024-01-30T12:47:56;96337.44;;;3.22;53.46
3968;BME280;9221;42.646;23.380;2024-01-30T12:50:23;96324.53;;;2.75;53.98
3968;BME280;9221;42.646;23.380;2024-01-30T12:52:49;96318.91;;;2.86;54.60
3968;BME280;9221;42.646;23.380;2024-01-30T12:55:15;96329.53;;;3.03;54.22
3968;BME280;9221;42.646;23.380;2024-01-30T12:57:40;96311.19;;;3.27;53.85
3968;BME280;9221;42.646;23.380;2024-01-30T13:00:07;96315.25;;;3.55;53.52
3968;BME280;9221;42.646;23.380;2024-01-30T13:02:36;96310.38;;;3.68;52.58
3968;BME280;9221;42.646;23.380;2024-01-30T13:05:03;96317.22;;;3.70;52.88
3968;BME280;9221;42.646;23.380;2024-01-30T13:07:29;96321.72;;;3.87;52.13
3968;BME280;9221;42.646;23.380;2024-01-30T13:09:54;96308.59;;;3.89;51.91
3968;BME280;9221;42.646;23.380;2024-01-30T13:12:20;96303.13;;;3.95;51.68
3968;BME280;9221;42.646;23.380;2024-01-30T13:14:45;96304.41;;;4.05;50.97